Time;durP1;ratioP1;P1;durP2;ratioP2;P2;SDS_P1;SDS_P2;PMS_P1;PMS_P2;Temp;Humidity;BMP_temperature;BMP_pressure;BME280_temperature;BME280_humidity;BME280_pressure;Samples;Min_cycle;Max_cycle;Signal;HPM_P1;HPM_P2
2021/05/19 00:02:08;;;;;;;17.60;14.25;;;8.10;85.20;;;;;;3584941;40;20056;-81
2021/05/19 00:04:34;;;;;;;25.50;16.50;;;8.10;85.30;;;;;;3584734;40;20048;-81
2021/05/19 00:07:00;;;;;;;20.80;14.85;;;8.10;85.40;;;;;;3585247;40;20241;-82
2021/05/19 00:09:26;;;;;;;23.58;15.00;;;8.00;85.30;;;;;;3586540;40;20037;-81
2021/05/19 00:11:51;;;;;;;21.45;14.45;;;8.00;85.50;;;;;;3586073;40;20045;-81
2021/05/19 00:14:18;;;;;;;22.23;14.25;;;8.00;86.20;;;;;;3585506;40;20053;-81
2021/05/19 00:16:46;;;;;;;21.60;15.10;;;8.00;85.60;;;;;;3585896;40;20044;-80
2021/05/19 00:19:13;;;;;;;18.63;13.85;;;7.90;85.60;;;;;;3585503;40;20123;-81
2021/05/19 00:21:38;;;;;;;16.70;12.70;;;7.90;85.70;;;;;;3586008;40;20049;-81
2021/05/19 00:24:06;;;;;;;29.08;16.90;;;7.90;85.70;;;;;;3586856;40;20454;-86
2021/05/19 00:26:32;;;;;;;20.00;14.00;;;7.80;85.80;;;;;;3585889;40;20044;-82
2021/05/19 00:28:59;;;;;;;22.80;13.52;;;7.80;85.90;;;;;;3585918;40;20040;-81
2021/05/19 00:31:30;;;;;;;18.65;12.25;;;7.80;85.80;;;;;;3583507;40;20052;-81
2021/05/19 00:33:56;;;;;;;21.00;13.10;;;7.80;86.00;;;;;;3583407;40;20040;-80
2021/05/19 00:36:22;;;;;;;17.65;12.38;;;7.70;85.90;;;;;;3582600;40;20251;-81
2021/05/19 00:38:48;;;;;;;15.70;11.68;;;7.70;86.00;;;;;;3584676;40;20145;-81
2021/05/19 00:41:14;;;;;;;29.13;17.23;;;7.80;86.00;;;;;;3586123;40;20229;-81
2021/05/19 00:43:41;;;;;;;21.92;14.10;;;7.70;85.80;;;;;;3587650;40;20049;-82
2021/05/19 00:46:08;;;;;;;23.67;15.65;;;7.60;86.30;;;;;;3587214;40;20048;-82
2021/05/19 00:48:35;;;;;;;22.63;15.20;;;7.60;86.70;;;;;;3587128;40;20660;-81
2021/05/19 00:51:01;;;;;;;25.88;16.40;;;7.60;87.80;;;;;;3586023;40;20063;-81
2021/05/19 00:53:27;;;;;;;24.17;13.90;;;7.50;87.50;;;;;;3586384;40;20101;-82
2021/05/19 00:55:53;;;;;;;24.02;16.23;;;7.50;87.20;;;;;;3587668;40;20309;-81
2021/05/19 00:58:19;;;;;;;19.20;13.25;;;7.50;87.10;;;;;;3577582;40;20044;-82
2021/05/19 01:00:45;;;;;;;17.20;11.25;;;7.50;87.00;;;;;;3586315;40;20058;-81
2021/05/19 01:03:12;;;;;;;21.10;13.32;;;7.40;87.10;;;;;;3577810;40;20073;-81
2021/05/19 01:05:42;;;;;;;20.90;13.63;;;7.40;87.00;;;;;;3593304;23;20049;-81
2021/05/19 01:10:54;;;;;;;18.40;13.18;;;7.40;87.20;;;;;;3567297;40;20039;-81
2021/05/19 01:13:22;;;;;;;16.50;12.13;;;7.40;87.20;;;;;;3557631;40;20299;-81
2021/05/19 01:15:48;;;;;;;18.50;11.93;;;7.40;86.90;;;;;;3564737;40;20052;-82
2021/05/19 01:18:14;;;;;;;14.93;9.65;;;7.30;86.90;;;;;;3553703;40;20248;-81
2021/05/19 01:20:41;;;;;;;18.25;10.90;;;7.30;86.90;;;;;;3557255;40;20222;-81
2021/05/19 01:23:08;;;;;;;14.68;11.32;;;7.30;87.00;;;;;;3562227;40;20403;-82
2021/05/19 01:25:35;;;;;;;21.30;14.85;;;7.30;86.90;;;;;;3548317;40;20412;-82
2021/05/19 01:28:02;;;;;;;24.98;16.70;;;7.30;86.90;;;;;;3555491;40;20044;-82
2021/05/19 01:30:30;;;;;;;25.73;15.63;;;7.30;86.90;;;;;;3564005;40;20123;-81
2021/05/19 01:32:56;;;;;;;22.92;15.30;;;7.30;87.10;;;;;;3566873;40;20069;-82
2021/05/19 01:35:22;;;;;;;26.25;14.88;;;7.20;88.40;;;;;;3557530;40;20380;-82
2021/05/19 01:37:49;;;;;;;26.95;15.75;;;7.30;88.10;;;;;;3567001;40;20324;-81
2021/05/19 01:40:17;;;;;;;32.35;17.85;;;7.30;88.30;;;;;;3555903;40;20388;-81
2021/05/19 01:42:46;;;;;;;26.13;16.98;;;7.30;90.20;;;;;;3562020;40;20034;-82
2021/05/19 01:45:13;;;;;;;31.30;17.90;;;7.30;89.20;;;;;;3560792;40;20139;-82
2021/05/19 01:47:47;;;;;;;26.95;16.55;;;7.40;89.20;;;;;;3566891;40;20333;-82
2021/05/19 01:50:30;;;;;;;21.90;13.83;;;7.30;88.30;;;;;;3573717;40;20243;-82
2021/05/19 01:52:58;;;;;;;22.40;14.85;;;7.30;89.10;;;;;;3571716;40;20057;-82
2021/05/19 01:55:25;;;;;;;22.13;14.40;;;7.30;88.90;;;;;;3571389;40;20045;-82
2021/05/19 01:57:52;;;;;;;26.95;15.80;;;7.30;88.80;;;;;;3570181;40;20053;-81
2021/05/19 02:00:22;;;;;;;19.10;12.05;;;7.30;88.70;;;;;;3567328;40;20047;-81
2021/05/19 02:03:14;;;;;;;19.35;12.68;;;7.30;88.80;;;;;;3557697;40;20041;-81
2021/05/19 02:05:41;;;;;;;21.83;13.82;;;7.30;89.40;;;;;;3565011;40;20069;-82
2021/05/19 02:08:08;;;;;;;19.75;13.70;;;7.20;89.10;;;;;;3557689;40;20037;-82
2021/05/19 02:10:35;;;;;;;15.43;10.57;;;7.20;88.60;;;;;;3557603;40;20055;-81
2021/05/19 02:13:04;;;;;;;20.52;13.60;;;7.20;88.70;;;;;;3567674;40;20041;-81
2021/05/19 02:15:30;;;;;;;18.50;12.40;;;7.30;88.80;;;;;;3576105;40;20125;-81
2021/05/19 02:17:58;;;;;;;18.92;13.02;;;7.20;89.10;;;;;;3562577;40;20352;-81
2021/05/19 02:20:25;;;;;;;26.58;14.75;;;7.20;88.80;;;;;;3557754;40;20037;-81
2021/05/19 02:22:51;;;;;;;22.17;14.23;;;7.20;88.60;;;;;;3566823;40;20045;-80
2021/05/19 02:25:18;;;;;;;19.60;13.38;;;7.10;89.20;;;;;;3557435;40;20418;-81
2021/05/19 02:27:50;;;;;;;16.13;10.73;;;7.10;88.50;;;;;;3574324;40;20033;-81
2021/05/19 02:30:17;;;;;;;19.88;14.63;;;7.10;89.10;;;;;;3567967;40;20049;-81
2021/05/19 02:32:44;;;;;;;19.50;13.52;;;7.10;89.40;;;;;;3543314;40;20034;-81
2021/05/19 02:35:10;;;;;;;23.63;15.82;;;7.20;89.60;;;;;;3547166;40;20052;-81
2021/05/19 02:37:37;;;;;;;17.10;11.95;;;7.10;90.00;;;;;;3574730;23;20057;-82
2021/05/19 02:40:06;;;;;;;21.10;15.38;;;7.20;89.30;;;;;;3569062;40;20040;-81
2021/05/19 02:42:33;;;;;;;26.20;15.88;;;7.10;89.20;;;;;;3576901;40;20041;-81
2021/05/19 02:44:59;;;;;;;23.10;15.30;;;7.10;89.90;;;;;;3577372;40;20273;-82
2021/05/19 02:47:25;;;;;;;21.23;13.60;;;7.20;90.00;;;;;;3586587;40;20269;-81
2021/05/19 02:49:52;;;;;;;23.83;15.13;;;7.10;90.00;;;;;;3586569;40;20040;-80
2021/05/19 02:52:18;;;;;;;23.17;13.23;;;7.10;90.00;;;;;;3578874;40;20049;-81
2021/05/19 02:54:43;;;;;;;27.27;16.10;;;7.10;89.80;;;;;;3576549;40;20076;-81
2021/05/19 02:57:09;;;;;;;21.63;13.50;;;7.10;89.80;;;;;;3579971;40;20045;-81
2021/05/19 02:59:35;;;;;;;23.98;15.05;;;7.10;90.00;;;;;;3586436;40;20049;-81
2021/05/19 03:02:02;;;;;;;22.55;14.10;;;7.10;90.00;;;;;;3585381;40;20117;-81
2021/05/19 03:04:29;;;;;;;18.88;12.27;;;7.10;89.90;;;;;;3586472;40;20048;-80
2021/05/19 03:06:55;;;;;;;22.55;15.13;;;7.10;89.80;;;;;;3586768;40;20129;-81
2021/05/19 03:09:21;;;;;;;18.05;11.48;;;7.10;90.00;;;;;;3567216;40;20592;-81
2021/05/19 03:11:47;;;;;;;20.38;12.93;;;7.00;90.00;;;;;;3584005;40;20052;-85
2021/05/19 03:14:14;;;;;;;22.33;15.63;;;7.00;90.20;;;;;;3577745;40;20040;-81
2021/05/19 03:16:40;;;;;;;21.05;12.68;;;7.00;90.10;;;;;;3577539;40;20609;-81
2021/05/19 03:19:07;;;;;;;20.63;14.18;;;7.00;90.50;;;;;;3600346;39;20043;-81
2021/05/19 03:21:34;;;;;;;18.27;12.85;;;7.10;90.60;;;;;;3586330;40;20071;-81
2021/05/19 03:24:00;;;;;;;19.08;13.50;;;7.10;90.60;;;;;;3586460;40;20112;-81
2021/05/19 03:26:26;;;;;;;22.30;13.73;;;7.30;91.20;;;;;;3589757;23;20033;-82
2021/05/19 03:28:52;;;;;;;23.30;15.27;;;7.40;90.60;;;;;;3581024;40;20040;-81
2021/05/19 03:31:19;;;;;;;23.90;14.57;;;7.40;90.90;;;;;;3577897;40;20048;-82
2021/05/19 03:33:46;;;;;;;26.00;15.32;;;7.60;90.90;;;;;;3577061;40;20198;-82
2021/05/19 03:36:12;;;;;;;27.52;16.17;;;7.80;91.00;;;;;;3579883;40;20467;-81
2021/05/19 03:38:38;;;;;;;21.65;13.60;;;7.70;90.90;;;;;;3576755;40;20041;-81
2021/05/19 03:41:06;;;;;;;23.83;15.35;;;7.70;90.90;;;;;;3577160;40;20327;-81
2021/05/19 03:43:33;;;;;;;19.58;13.27;;;7.80;91.90;;;;;;3580985;40;20505;-81
2021/05/19 03:45:59;;;;;;;20.05;14.35;;;7.70;91.10;;;;;;3582434;40;20355;-82
2021/05/19 03:48:25;;;;;;;22.33;13.68;;;7.80;91.40;;;;;;3592001;40;20054;-81
2021/05/19 03:50:51;;;;;;;19.63;13.38;;;7.90;91.40;;;;;;3594474;40;20060;-81
2021/05/19 03:53:17;;;;;;;17.65;12.50;;;8.00;91.40;;;;;;3581224;40;20252;-81
2021/05/19 03:55:44;;;;;;;19.35;13.07;;;8.00;91.30;;;;;;3596475;40;20044;-80
2021/05/19 03:58:11;;;;;;;18.30;13.52;;;8.00;91.30;;;;;;3586459;40;20044;-81
2021/05/19 04:00:38;;;;;;;21.73;14.05;;;8.00;92.10;;;;;;3587132;40;20047;-81
2021/05/19 04:03:05;;;;;;;19.70;13.85;;;8.10;92.10;;;;;;3596232;40;20036;-81
2021/05/19 04:05:39;;;;;;;18.98;12.85;;;8.20;92.10;;;;;;3586938;40;20039;-81
2021/05/19 04:08:07;;;;;;;20.15;14.50;;;8.20;91.70;;;;;;3596175;40;20040;-81
2021/05/19 04:10:33;;;;;;;17.27;13.18;;;8.20;91.70;;;;;;3584224;40;20047;-81
2021/05/19 04:13:01;;;;;;;20.15;13.25;;;8.20;91.50;;;;;;3586984;40;20040;-81
2021/05/19 04:15:27;;;;;;;20.23;12.73;;;8.20;91.50;;;;;;3596000;40;20070;-81
2021/05/19 04:17:53;;;;;;;17.48;11.45;;;8.20;91.50;;;;;;3594611;40;20319;-81
2021/05/19 04:20:20;;;;;;;18.60;12.02;;;8.30;91.50;;;;;;3595961;40;20234;-81
2021/05/19 04:22:46;;;;;;;17.92;12.15;;;8.30;91.80;;;;;;3587802;40;20044;-81
2021/05/19 04:25:13;;;;;;;21.38;12.20;;;8.30;91.50;;;;;;3584861;40;20154;-82
2021/05/19 04:27:39;;;;;;;14.55;10.18;;;8.40;91.50;;;;;;3576711;40;20076;-82
2021/05/19 04:30:08;;;;;;;17.05;11.90;;;8.40;91.70;;;;;;3586391;40;20040;-81
2021/05/19 04:32:34;;;;;;;18.70;12.15;;;8.40;91.50;;;;;;3596995;39;20133;-81
2021/05/19 04:35:00;;;;;;;18.45;12.60;;;8.50;91.60;;;;;;3597840;40;20326;-80
2021/05/19 04:37:26;;;;;;;16.63;12.32;;;8.50;91.90;;;;;;3588724;40;20040;-81
2021/05/19 04:39:52;;;;;;;17.55;11.70;;;8.50;92.10;;;;;;3592351;40;20124;-81
2021/05/19 04:42:17;;;;;;;20.73;11.98;;;8.60;91.70;;;;;;3584266;40;20070;-80
2021/05/19 04:44:43;;;;;;;16.73;11.52;;;8.60;91.70;;;;;;3588255;40;20129;-80
2021/05/19 04:47:09;;;;;;;17.35;11.65;;;8.70;92.00;;;;;;3597806;40;20039;-81
2021/05/19 04:49:35;;;;;;;13.27;10.27;;;8.70;91.80;;;;;;3597668;40;20048;-81
2021/05/19 04:52:02;;;;;;;17.23;11.85;;;8.80;91.80;;;;;;3581277;40;20040;-81
2021/05/19 04:54:28;;;;;;;17.10;10.77;;;8.80;91.70;;;;;;3579100;40;20043;-82
2021/05/19 04:56:54;;;;;;;19.13;12.18;;;8.90;91.70;;;;;;3592409;40;20128;-82
2021/05/19 04:59:20;;;;;;;13.68;9.75;;;8.90;91.80;;;;;;3594836;40;20072;-81
2021/05/19 05:01:46;;;;;;;19.83;11.00;;;8.90;91.80;;;;;;3597274;40;20124;-82
2021/05/19 05:04:12;;;;;;;15.90;10.55;;;9.00;92.10;;;;;;3579730;40;20037;-82
2021/05/19 05:06:38;;;;;;;17.83;10.60;;;9.00;92.10;;;;;;3584195;40;20036;-81
2021/05/19 05:09:04;;;;;;;18.33;11.90;;;9.10;92.00;;;;;;3578121;40;20052;-81
2021/05/19 05:11:30;;;;;;;16.80;10.52;;;9.10;92.30;;;;;;3580566;40;20109;-81
2021/05/19 05:13:56;;;;;;;13.60;9.75;;;9.10;92.20;;;;;;3582701;40;20416;-81
2021/05/19 05:16:22;;;;;;;18.17;10.63;;;9.20;92.00;;;;;;3569823;40;20044;-82
2021/05/19 05:18:48;;;;;;;16.30;10.73;;;9.20;91.80;;;;;;3579463;40;20036;-81
2021/05/19 05:21:14;;;;;;;15.73;10.23;;;9.30;91.90;;;;;;3579384;40;20036;-82
2021/05/19 05:23:40;;;;;;;15.50;9.90;;;9.30;91.80;;;;;;3588093;40;20044;-82
2021/05/19 05:26:06;;;;;;;14.88;11.23;;;9.40;92.00;;;;;;3587473;40;20064;-82
2021/05/19 05:28:32;;;;;;;18.13;10.73;;;9.40;91.90;;;;;;3586273;40;20043;-82
2021/05/19 05:30:59;;;;;;;16.60;9.82;;;9.50;91.90;;;;;;3576318;40;20091;-82
2021/05/19 05:33:25;;;;;;;12.07;9.73;;;9.50;92.00;;;;;;3583155;40;20070;-81
2021/05/19 05:35:51;;;;;;;17.08;10.13;;;9.50;91.90;;;;;;3595244;40;20044;-81
2021/05/19 05:38:17;;;;;;;13.70;9.20;;;9.70;92.00;;;;;;3576172;40;20441;-82
2021/05/19 05:40:43;;;;;;;16.00;10.85;;;9.60;91.90;;;;;;3583456;40;20129;-81
2021/05/19 05:43:09;;;;;;;17.23;10.95;;;9.60;92.00;;;;;;3592066;39;20443;-81
2021/05/19 05:45:36;;;;;;;15.85;9.60;;;9.60;92.00;;;;;;3578718;40;20094;-81
2021/05/19 05:48:02;;;;;;;16.33;9.98;;;9.70;91.90;;;;;;3596403;40;20669;-84
2021/05/19 05:50:28;;;;;;;13.18;9.65;;;9.70;92.00;;;;;;3594249;40;20032;-81
2021/05/19 05:52:55;;;;;;;10.65;9.60;;;9.80;92.20;;;;;;3588627;40;20049;-81
2021/05/19 05:55:21;;;;;;;14.30;11.65;;;9.80;92.00;;;;;;3583666;40;20036;-81
2021/05/19 05:57:48;;;;;;;19.92;12.00;;;9.90;92.20;;;;;;3606012;23;20036;-81
2021/05/19 06:00:15;;;;;;;17.73;12.90;;;10.00;92.00;;;;;;3585766;40;20037;-81
2021/05/19 06:02:41;;;;;;;14.23;9.80;;;10.10;92.10;;;;;;3568007;40;20036;-81
2021/05/19 06:05:07;;;;;;;17.15;10.93;;;10.20;92.30;;;;;;3577163;40;20068;-81
2021/05/19 06:07:33;;;;;;;19.17;11.77;;;10.40;92.10;;;;;;3572737;40;20037;-81
2021/05/19 06:09:59;;;;;;;15.63;10.93;;;10.50;92.10;;;;;;3573063;40;20058;-81
2021/05/19 06:12:25;;;;;;;11.43;9.70;;;10.80;92.10;;;;;;3574061;40;20072;-81
2021/05/19 06:14:50;;;;;;;13.77;10.55;;;11.00;92.10;;;;;;3573733;40;20506;-81
2021/05/19 06:17:16;;;;;;;22.83;11.70;;;11.40;92.10;;;;;;3575273;40;20036;-82
2021/05/19 06:19:43;;;;;;;12.65;10.90;;;11.70;91.80;;;;;;3590940;39;20036;-81
2021/05/19 06:22:09;;;;;;;20.67;11.43;;;11.80;91.70;;;;;;3600787;23;20076;-81
2021/05/19 06:24:35;;;;;;;11.27;9.50;;;11.80;91.60;;;;;;3568914;40;20069;-81
2021/05/19 06:27:02;;;;;;;14.02;9.95;;;11.70;91.50;;;;;;3577406;40;20028;-81
2021/05/19 06:29:28;;;;;;;14.82;11.90;;;11.90;91.90;;;;;;3577961;40;20036;-81
2021/05/19 06:31:57;;;;;;;11.20;10.05;;;12.60;91.80;;;;;;3588821;40;20064;-81
2021/05/19 06:34:23;;;;;;;12.45;10.55;;;13.50;91.50;;;;;;3576898;40;20036;-81
2021/05/19 06:36:51;;;;;;;14.55;9.98;;;13.90;91.20;;;;;;3586848;40;20032;-81
2021/05/19 06:39:22;;;;;;;12.10;9.27;;;14.60;91.20;;;;;;3568862;40;20045;-81
2021/05/19 06:41:48;;;;;;;12.88;9.88;;;15.50;90.40;;;;;;3586488;40;20044;-81
2021/05/19 06:44:15;;;;;;;12.07;9.27;;;16.00;90.00;;;;;;3577140;40;20190;-81
2021/05/19 06:46:41;;;;;;;11.93;10.63;;;16.60;90.10;;;;;;3559053;40;20221;-81
2021/05/19 06:49:07;;;;;;;10.90;9.38;;;17.10;88.80;;;;;;3576263;40;20051;-81
2021/05/19 06:51:37;;;;;;;11.15;9.27;;;17.50;88.90;;;;;;3575833;40;20138;-81
2021/05/19 06:54:04;;;;;;;11.32;10.18;;;17.80;88.00;;;;;;3576246;40;20053;-82
2021/05/19 06:56:31;;;;;;;11.38;10.18;;;18.10;88.20;;;;;;3566916;40;20040;-81
2021/05/19 06:58:57;;;;;;;13.63;11.02;;;18.30;89.30;;;;;;3577964;40;20321;-81
2021/05/19 07:01:24;;;;;;;13.25;11.77;;;18.40;87.30;;;;;;3566976;40;20085;-82
2021/05/19 07:03:50;;;;;;;13.93;11.30;;;18.50;89.00;;;;;;3566836;40;20045;-82
2021/05/19 07:06:20;;;;;;;16.83;13.65;;;18.60;89.10;;;;;;3567138;40;20096;-81
2021/05/19 07:08:47;;;;;;;13.43;12.02;;;18.60;89.70;;;;;;3576291;40;20291;-81
2021/05/19 07:11:13;;;;;;;15.43;10.98;;;18.70;88.80;;;;;;3575952;40;20045;-81
2021/05/19 07:13:39;;;;;;;11.55;9.48;;;18.90;89.20;;;;;;3575037;40;20045;-81
2021/05/19 07:16:05;;;;;;;11.30;9.02;;;18.80;88.80;;;;;;3566609;40;20044;-81
2021/05/19 07:18:31;;;;;;;11.90;8.20;;;18.70;89.60;;;;;;3577464;40;20044;-81
2021/05/19 07:20:57;;;;;;;7.25;6.55;;;18.40;90.30;;;;;;3575732;40;20130;-81
2021/05/19 07:23:23;;;;;;;9.00;8.05;;;17.80;89.80;;;;;;3567418;40;20073;-80
2021/05/19 07:25:49;;;;;;;10.52;7.35;;;17.50;90.30;;;;;;3565501;40;20040;-81
2021/05/19 07:28:15;;;;;;;12.25;8.10;;;17.80;90.90;;;;;;3574477;40;20252;-79
2021/05/19 07:30:43;;;;;;;15.70;8.70;;;18.00;88.30;;;;;;3577447;40;20047;-79
2021/05/19 07:33:10;;;;;;;8.93;7.90;;;18.00;88.80;;;;;;3575469;40;20044;-80
2021/05/19 07:35:37;;;;;;;10.45;7.32;;;17.70;86.60;;;;;;3566587;40;20065;-80
2021/05/19 07:38:09;;;;;;;10.70;8.77;;;17.50;87.20;;;;;;3575415;40;20290;-81
2021/05/19 07:40:35;;;;;;;10.07;8.75;;;17.50;86.80;;;;;;3575557;40;20532;-81
2021/05/19 07:43:02;;;;;;;10.32;9.32;;;17.70;85.20;;;;;;3566293;40;20041;-80
2021/05/19 07:45:28;;;;;;;10.27;8.43;;;17.50;83.20;;;;;;3575601;40;20048;-80
2021/05/19 07:47:57;;;;;;;13.70;8.75;;;17.50;84.50;;;;;;3556405;40;20324;-80
2021/05/19 07:50:23;;;;;;;9.82;8.82;;;17.80;83.90;;;;;;3564432;40;20431;-81
2021/05/19 07:52:49;;;;;;;10.18;8.98;;;18.30;83.60;;;;;;3572280;40;20066;-80
2021/05/19 07:55:54;;;;;;;10.10;8.63;;;18.30;82.40;;;;;;3566576;40;20247;-80
2021/05/19 07:58:14;;;;;;;11.15;9.18;;;18.00;82.50;;;;;;3576466;40;20041;-80
2021/05/19 08:03:09;;;;;;;11.68;10.32;;;18.10;83.60;;;;;;3575400;40;20037;-80
2021/05/19 08:05:35;;;;;;;12.30;10.25;;;18.50;80.90;;;;;;3575521;40;20252;-80
2021/05/19 08:08:00;;;;;;;12.63;10.68;;;18.50;80.30;;;;;;3576787;40;20072;-80
2021/05/19 08:10:26;;;;;;;12.98;10.45;;;18.60;81.30;;;;;;3577127;40;20106;-80
2021/05/19 08:12:52;;;;;;;12.40;11.23;;;19.00;79.90;;;;;;3577069;40;20045;-80
2021/05/19 08:15:19;;;;;;;12.50;11.30;;;19.30;79.30;;;;;;3577075;40;20126;-80
2021/05/19 08:17:45;;;;;;;15.57;12.13;;;19.60;79.40;;;;;;3578186;40;20048;-80
2021/05/19 08:20:11;;;;;;;15.80;12.60;;;19.90;79.80;;;;;;3576761;40;20045;-80
2021/05/19 08:22:37;;;;;;;15.18;13.40;;;20.10;77.10;;;;;;3559727;40;20037;-80
2021/05/19 08:25:04;;;;;;;12.98;11.68;;;20.10;77.40;;;;;;3576831;40;20043;-80
2021/05/19 08:27:29;;;;;;;14.95;12.38;;;20.20;77.40;;;;;;3577167;40;20401;-80
2021/05/19 08:29:56;;;;;;;13.05;11.75;;;20.30;75.60;;;;;;3575915;40;20044;-81
2021/05/19 08:32:22;;;;;;;13.45;10.50;;;20.40;74.20;;;;;;3567712;40;20037;-80
2021/05/19 08:34:47;;;;;;;12.93;9.80;;;20.50;75.90;;;;;;3567719;40;20052;-80
2021/05/19 08:37:13;;;;;;;12.77;11.27;;;20.70;74.70;;;;;;3567650;40;20331;-80
2021/05/19 08:39:39;;;;;;;14.13;11.85;;;20.50;75.10;;;;;;3567722;40;20049;-80
2021/05/19 08:42:05;;;;;;;14.27;11.40;;;20.30;75.60;;;;;;3576893;40;20080;-80
2021/05/19 08:44:31;;;;;;;12.65;10.52;;;20.30;75.90;;;;;;4846046;23;20044;31
2021/05/19 08:46:57;;;;;;;16.08;9.50;;;20.00;76.90;;;;;;3528375;40;20324;-80
2021/05/19 08:49:25;;;;;;;13.52;10.43;;;19.60;76.10;;;;;;3537239;40;20079;-80
2021/05/19 08:51:51;;;;;;;10.30;8.98;;;19.70;76.60;;;;;;3529608;40;20051;-80
2021/05/19 08:54:19;;;;;;;9.43;8.52;;;19.80;76.70;;;;;;3537330;40;20046;-80
2021/05/19 08:56:48;;;;;;;12.18;9.48;;;19.60;76.50;;;;;;3532268;40;20505;-80
2021/05/19 08:59:14;;;;;;;10.65;8.73;;;19.30;76.20;;;;;;3537076;40;20043;-79
2021/05/19 09:01:51;;;;;;;10.15;8.43;;;18.90;75.10;;;;;;3537245;40;20038;-80
2021/05/19 09:04:20;;;;;;;7.63;6.90;;;18.50;72.80;;;;;;3537063;40;20038;-80
2021/05/19 09:06:56;;;;;;;7.07;6.10;;;18.10;76.50;;;;;;3540523;40;20248;-80
2021/05/19 09:09:30;;;;;;;8.65;7.60;;;18.10;74.70;;;;;;3537286;40;20218;-80
2021/05/19 09:11:59;;;;;;;;;;;18.60;75.50;;;;;;3532905;40;20050;-80
2021/05/19 09:14:26;;;;;;;7.88;7.07;;;18.70;67.20;;;;;;3537040;40;19938;-80
2021/05/19 09:16:52;;;;;;;9.45;7.18;;;18.80;76.10;;;;;;3537303;40;20066;-80
2021/05/19 09:19:33;;;;;;;10.50;8.27;;;19.00;77.30;;;;;;3536780;40;20042;-80
2021/05/19 09:21:59;;;;;;;8.52;7.40;;;19.50;69.70;;;;;;3537038;40;20043;-80
2021/05/19 09:24:34;;;;;;;8.13;7.32;;;19.60;73.10;;;;;;3537398;40;20057;-80
2021/05/19 09:27:01;;;;;;;13.13;10.23;;;19.70;73.60;;;;;;3537041;40;20050;-80
2021/05/19 09:29:29;;;;;;;10.70;9.60;;;20.10;74.40;;;;;;3536744;40;20046;-80
2021/05/19 09:31:58;;;;;;;9.27;8.45;;;20.20;70.90;;;;;;3536697;40;20090;-80
2021/05/19 09:34:39;;;;;;;10.13;9.07;;;19.90;72.60;;;;;;3531985;40;20110;-80
2021/05/19 09:37:40;;;;;;;8.77;7.78;;;19.80;71.20;;;;;;3536933;40;20067;-80
2021/05/19 09:40:12;;;;;;;8.13;7.43;;;19.70;68.30;;;;;;3534994;40;20039;-79
2021/05/19 09:42:38;;;;;;;12.17;9.37;;;19.90;69.40;;;;;;3535897;40;20035;-80
2021/05/19 09:45:18;;;;;;;9.02;8.13;;;20.10;73.50;;;;;;3538811;40;20054;-80
2021/05/19 09:47:50;;;;;;;9.90;8.13;;;20.10;65.60;;;;;;3549077;40;20049;-80
2021/05/19 09:50:21;;;;;;;9.75;8.77;;;20.10;71.60;;;;;;3550494;40;20088;-80
2021/05/19 09:53:06;;;;;;;10.02;9.13;;;20.20;70.70;;;;;;3545706;40;20312;-80
2021/05/19 09:55:34;;;;;;;11.38;10.20;;;20.40;67.90;;;;;;3541507;40;20050;-80
2021/05/19 09:58:01;;;;;;;10.05;9.07;;;20.70;72.10;;;;;;3550108;40;20053;-80
2021/05/19 10:00:28;;;;;;;9.57;8.55;;;20.90;71.20;;;;;;3531865;40;20351;-80
2021/05/19 10:03:00;;;;;;;11.13;9.77;;;21.00;70.90;;;;;;3540356;40;20132;-80
2021/05/19 10:05:31;;;;;;;10.10;9.20;;;21.10;68.80;;;;;;3547926;40;20046;-80
2021/05/19 10:07:56;;;;;;;9.70;8.70;;;20.90;69.00;;;;;;3544712;40;20038;-80
2021/05/19 10:10:23;;;;;;;9.13;8.38;;;20.70;69.60;;;;;;3538176;40;20449;-80
2021/05/19 10:12:52;;;;;;;11.48;10.27;;;20.70;70.60;;;;;;3547310;40;20042;-80
2021/05/19 10:15:22;;;;;;;10.35;8.18;;;20.60;69.40;;;;;;3540732;40;20513;-80
2021/05/19 10:17:53;;;;;;;12.43;10.27;;;20.50;69.20;;;;;;3551262;40;20099;-80
2021/05/19 10:20:24;;;;;;;9.63;8.73;;;20.50;67.90;;;;;;3549452;40;20066;-80
2021/05/19 10:22:50;;;;;;;9.65;8.75;;;20.40;68.30;;;;;;3541304;40;20082;-80
2021/05/19 10:25:33;;;;;;;9.60;8.68;;;20.20;69.10;;;;;;3548570;40;20128;-80
2021/05/19 10:28:01;;;;;;;9.70;8.80;;;20.10;65.30;;;;;;3539084;40;20038;-80
2021/05/19 10:30:38;;;;;;;8.77;7.95;;;20.00;68.90;;;;;;3545067;40;20048;-80
2021/05/19 10:33:06;;;;;;;10.55;9.55;;;19.70;67.00;;;;;;3547979;40;20046;-80
2021/05/19 10:35:36;;;;;;;11.25;10.15;;;19.40;68.60;;;;;;3546799;40;20148;-80
2021/05/19 10:38:22;;;;;;;13.07;11.18;;;19.20;68.40;;;;;;3547898;40;20410;-80
2021/05/19 10:40:57;;;;;;;11.60;10.50;;;19.00;64.00;;;;;;3550302;40;20131;-80
2021/05/19 10:59:13;;;;;;;10.45;8.57;;;19.10;60.70;;;;;;3555149;40;20052;-81
2021/05/19 11:01:40;;;;;;;11.40;8.10;;;19.00;67.60;;;;;;3555848;40;20049;-81
2021/05/19 11:04:14;;;;;;;16.65;11.68;;;18.60;66.90;;;;;;3556234;40;20108;-80
2021/05/19 11:07:01;;;;;;;8.38;6.80;;;18.20;67.00;;;;;;3555360;40;20243;-79
2021/05/19 11:09:29;;;;;;;8.68;6.18;;;17.70;65.60;;;;;;3556235;40;20295;-80
2021/05/19 11:12:22;;;;;;;6.38;5.78;;;17.40;69.20;;;;;;3546749;40;20061;-79
2021/05/19 11:14:52;;;;;;;9.65;5.75;;;17.00;66.20;;;;;;3553585;40;20345;-81
2021/05/19 11:17:53;;;;;;;10.38;5.22;;;16.70;69.80;;;;;;3546461;40;20034;-80
2021/05/19 11:20:14;;;;;;;10.35;4.78;;;16.30;70.70;;;;;;3555297;40;20030;-80
2021/05/19 11:22:40;;;;;;;7.65;3.97;;;16.10;71.60;;;;;;3547034;40;20186;-79
2021/05/19 11:25:07;;;;;;;6.60;3.58;;;16.00;71.60;;;;;;3555856;40;20053;-79
2021/05/19 11:27:34;;;;;;;4.13;3.40;;;15.70;71.20;;;;;;3555880;40;20041;-79
2021/05/19 11:30:04;;;;;;;2.13;1.60;;;15.60;71.90;;;;;;3555110;40;20064;-78
2021/05/19 11:32:31;;;;;;;4.80;1.98;;;15.60;71.20;;;;;;3546531;40;20057;-78
2021/05/19 11:35:20;;;;;;;3.45;0.95;;;15.40;71.00;;;;;;3555619;40;20042;-79
2021/05/19 11:38:16;;;;;;;1.73;1.08;;;15.20;68.40;;;;;;3555841;40;20033;-79
2021/05/19 11:40:48;;;;;;;3.65;0.93;;;15.20;71.40;;;;;;3555769;40;20145;-79
2021/05/19 11:43:15;;;;;;;2.95;0.93;;;15.60;73.70;;;;;;3557112;40;20411;-79
2021/05/19 11:45:43;;;;;;;1.60;0.80;;;16.10;72.50;;;;;;3557326;40;20045;-79
2021/05/19 11:48:26;;;;;;;2.03;0.85;;;16.30;70.00;;;;;;3557212;40;20056;-79
2021/05/19 11:50:56;;;;;;;2.00;0.75;;;16.40;69.60;;;;;;3538962;40;20042;-79
2021/05/19 11:53:24;;;;;;;1.10;0.40;;;16.60;71.20;;;;;;3557616;40;20051;-79
2021/05/19 11:55:53;;;;;;;1.23;0.47;;;16.70;70.90;;;;;;3557115;40;20041;-79
2021/05/19 11:58:22;;;;;;;4.15;1.48;;;16.80;71.10;;;;;;3551435;40;20041;-79
2021/05/19 12:01:07;;;;;;;4.05;1.63;;;16.80;70.30;;;;;;3540072;40;20157;-79
2021/05/19 12:03:35;;;;;;;5.45;1.83;;;16.80;70.60;;;;;;3547738;40;20058;-79
2021/05/19 12:06:04;;;;;;;3.17;2.70;;;16.70;69.30;;;;;;3547611;40;20165;-79
2021/05/19 12:08:31;;;;;;;11.15;7.13;;;16.60;69.80;;;;;;3541311;40;20045;-79
2021/05/19 12:11:21;;;;;;;6.40;4.72;;;16.40;70.10;;;;;;3551470;40;20108;-80
2021/05/19 12:13:56;;;;;;;3.88;3.47;;;16.30;65.20;;;;;;3538703;40;20043;-79
2021/05/19 12:16:36;;;;;;;3.95;3.22;;;16.20;70.50;;;;;;3542260;40;20049;-80
2021/05/19 12:19:13;;;;;;;3.20;2.67;;;16.10;67.70;;;;;;3547297;40;20053;-80
2021/05/19 12:21:54;;;;;;;5.45;3.28;;;15.80;69.30;;;;;;3547830;40;20042;-80
2021/05/19 12:24:24;;;;;;;5.88;3.45;;;15.60;69.90;;;;;;3540176;40;20050;-79
2021/05/19 12:26:54;;;;;;;5.07;2.53;;;15.50;71.00;;;;;;3548252;40;20042;-79
2021/05/19 12:29:46;;;;;;;2.50;2.03;;;15.40;71.80;;;;;;3538741;40;20554;-80
2021/05/19 12:32:24;;;;;;;5.53;1.40;;;15.40;72.70;;;;;;3550301;40;20046;-79
2021/05/19 12:35:08;;;;;;;2.08;1.35;;;15.40;72.70;;;;;;3551708;40;20320;-80
2021/05/19 12:37:42;;;;;;;1.00;0.70;;;15.40;72.30;;;;;;3546789;40;20054;-80
2021/05/19 12:40:10;;;;;;;3.67;0.90;;;15.30;71.90;;;;;;3551032;40;20038;-80
2021/05/19 12:42:45;;;;;;;2.47;1.10;;;15.20;72.80;;;;;;3539583;40;20042;-80
2021/05/19 12:45:13;;;;;;;1.98;0.80;;;15.20;73.30;;;;;;3549480;40;20053;-80
2021/05/19 12:47:39;;;;;;;6.70;6.15;;;15.20;73.00;;;;;;3539181;40;20169;-80
2021/05/19 12:50:07;;;;;;;1.42;1.13;;;15.20;72.90;;;;;;3547852;40;20386;-81
2021/05/19 12:52:35;;;;;;;1.33;0.70;;;15.30;73.10;;;;;;3548386;40;20057;-80
2021/05/19 12:55:04;;;;;;;2.15;0.57;;;15.50;72.70;;;;;;3539325;40;20042;-80
2021/05/19 12:57:32;;;;;;;1.25;0.70;;;15.60;72.90;;;;;;3549759;40;20308;-80
2021/05/19 13:00:15;;;;;;;91.30;81.32;;;15.60;72.10;;;;;;3556374;40;20045;-80
2021/05/19 13:02:46;;;;;;;1.67;1.48;;;15.50;72.00;;;;;;3556852;40;20104;-79
2021/05/19 13:05:24;;;;;;;1.83;1.45;;;15.50;72.80;;;;;;3552656;40;20077;-80
2021/05/19 13:07:51;;;;;;;1.40;0.77;;;15.50;72.20;;;;;;3551140;40;20647;-81